Time;durP1;ratioP1;P1;durP2;ratioP2;P2;SDS_P1;SDS_P2;PMS_P1;PMS_P2;Temp;Humidity;BMP_temperature;BMP_pressure;BME280_temperature;BME280_humidity;BME280_pressure;Samples;Min_cycle;Max_cycle;Signal;HPM_P1;HPM_P2
2023/12/03 00:00:08;;;;;;;6.60;3.97;;;9.90;54.90;;;;;;345519;28;2717;-55
2023/12/03 00:00:19;;;;;;;6.97;3.97;;;9.90;54.90;;;;;;345477;28;1012;-57
2023/12/03 00:00:30;;;;;;;6.68;4.10;;;9.80;54.80;;;;;;345512;28;1317;-58
2023/12/03 00:00:42;;;;;;;6.75;4.38;;;9.90;54.80;;;;;;345523;28;1403;-55
2023/12/03 00:00:53;;;;;;;6.18;4.30;;;9.90;54.80;;;;;;345565;28;1035;-56
2023/12/03 00:01:04;;;;;;;5.75;4.40;;;9.80;54.90;;;;;;345430;28;878;-56
2023/12/03 00:01:15;;;;;;;5.82;4.15;;;9.90;54.90;;;;;;345567;28;829;-56
2023/12/03 00:01:26;;;;;;;6.10;3.90;;;9.80;55.00;;;;;;345551;28;1003;-55
2023/12/03 00:01:36;;;;;;;6.47;3.75;;;9.80;55.00;;;;;;345573;28;865;-55
2023/12/03 00:01:48;;;;;;;6.90;3.80;;;9.90;55.00;;;;;;345577;28;855;-54
2023/12/03 00:01:59;;;;;;;7.53;4.22;;;9.80;55.00;;;;;;345459;28;971;-55
2023/12/03 00:02:11;;;;;;;7.93;4.72;;;9.80;55.00;;;;;;345568;28;857;-56
2023/12/03 00:02:22;;;;;;;7.35;4.43;;;9.80;55.10;;;;;;345583;28;992;-55
2023/12/03 00:02:35;;;;;;;6.97;4.22;;;9.80;55.20;;;;;;345544;28;869;-55
2023/12/03 00:02:46;;;;;;;6.15;4.30;;;9.90;55.10;;;;;;345493;28;1100;-56
2023/12/03 00:02:57;;;;;;;5.97;4.50;;;9.80;55.10;;;;;;345482;28;1185;-56
2023/12/03 00:03:09;;;;;;;5.78;4.40;;;9.80;55.10;;;;;;345506;28;1397;-56
2023/12/03 00:03:20;;;;;;;6.68;4.75;;;9.80;55.10;;;;;;345548;28;976;-56
2023/12/03 00:03:31;;;;;;;9.10;4.93;;;9.80;55.10;;;;;;345481;28;1091;-56
2023/12/03 00:03:42;;;;;;;10.17;5.53;;;9.80;55.10;;;;;;345595;28;872;-56
2023/12/03 00:03:52;;;;;;;12.17;6.70;;;9.80;55.20;;;;;;345551;28;1147;-55
2023/12/03 00:04:03;;;;;;;12.25;7.53;;;9.80;55.20;;;;;;345462;28;1533;-54
2023/12/03 00:04:14;;;;;;;11.50;7.30;;;9.80;55.20;;;;;;345551;28;933;-56
2023/12/03 00:04:25;;;;;;;9.15;6.07;;;9.80;55.20;;;;;;345530;28;1001;-56
2023/12/03 00:04:36;;;;;;;7.90;5.65;;;9.80;55.20;;;;;;345553;28;1063;-56
2023/12/03 00:04:48;;;;;;;8.32;5.72;;;9.80;55.40;;;;;;345545;28;1121;-55
2023/12/03 00:04:58;;;;;;;8.70;5.85;;;9.80;55.40;;;;;;345488;28;1238;-55
2023/12/03 00:05:10;;;;;;;8.95;5.90;;;9.80;55.50;;;;;;345568;28;1083;-56
2023/12/03 00:05:20;;;;;;;8.25;5.65;;;9.70;55.40;;;;;;345484;28;988;-55
2023/12/03 00:05:31;;;;;;;7.97;5.57;;;9.80;55.40;;;;;;345482;28;1341;-55
2023/12/03 00:05:42;;;;;;;6.63;4.97;;;9.80;55.40;;;;;;345505;28;988;-54
2023/12/03 00:05:53;;;;;;;7.82;4.85;;;9.80;55.40;;;;;;345573;28;937;-56
2023/12/03 00:06:04;;;;;;;8.05;4.50;;;9.80;55.40;;;;;;345437;28;1507;-55
2023/12/03 00:06:15;;;;;;;8.85;4.38;;;9.70;55.40;;;;;;345327;28;1019;-56
2023/12/03 00:06:26;;;;;;;7.40;4.13;;;9.80;55.60;;;;;;345344;28;1492;-56
2023/12/03 00:06:36;;;;;;;6.72;3.92;;;9.70;55.70;;;;;;345356;28;845;-55
2023/12/03 00:06:47;;;;;;;5.30;3.90;;;9.70;55.80;;;;;;345406;28;837;-57
2023/12/03 00:06:59;;;;;;;5.18;3.70;;;9.80;55.80;;;;;;345528;28;817;-56
2023/12/03 00:07:10;;;;;;;6.63;4.07;;;9.70;55.90;;;;;;345407;28;1147;-56
2023/12/03 00:07:22;;;;;;;6.68;4.07;;;9.80;55.80;;;;;;345515;28;1520;-56
2023/12/03 00:07:34;;;;;;;6.53;4.03;;;9.80;55.60;;;;;;345499;28;1860;-56
2023/12/03 00:07:45;;;;;;;5.95;4.15;;;9.70;55.60;;;;;;345458;28;999;-55
2023/12/03 00:07:56;;;;;;;6.40;4.50;;;9.80;55.50;;;;;;345551;28;1012;-55
2023/12/03 00:08:08;;;;;;;6.68;4.65;;;9.70;55.50;;;;;;345520;28;1572;-55
2023/12/03 00:08:19;;;;;;;6.75;4.68;;;9.70;55.50;;;;;;345567;28;1031;-57
2023/12/03 00:08:30;;;;;;;6.78;4.40;;;9.80;55.50;;;;;;345476;28;1984;-55
2023/12/03 00:08:40;;;;;;;6.50;4.22;;;9.70;55.40;;;;;;345568;28;933;-55
2023/12/03 00:08:51;;;;;;;5.57;4.03;;;9.70;55.40;;;;;;345556;28;858;-55
2023/12/03 00:09:02;;;;;;;5.57;4.10;;;9.70;55.50;;;;;;345491;28;838;-56
2023/12/03 00:09:13;;;;;;;5.68;4.03;;;9.70;55.60;;;;;;345479;28;1079;-55
2023/12/03 00:09:24;;;;;;;5.57;4.07;;;9.70;55.60;;;;;;345522;28;1071;-55
2023/12/03 00:09:36;;;;;;;5.57;4.13;;;9.70;55.60;;;;;;345570;28;1000;-55
2023/12/03 00:09:47;;;;;;;6.30;4.20;;;9.70;55.50;;;;;;345477;28;974;-54
2023/12/03 00:09:59;;;;;;;6.53;4.22;;;9.70;55.60;;;;;;345487;28;1938;-56
2023/12/03 00:10:11;;;;;;;6.20;4.20;;;9.70;55.60;;;;;;345525;28;1016;-55
2023/12/03 00:10:23;;;;;;;5.72;4.30;;;9.70;55.60;;;;;;345541;28;972;-55
2023/12/03 00:10:34;;;;;;;5.90;4.38;;;9.70;55.60;;;;;;345441;28;1916;-55
2023/12/03 00:10:45;;;;;;;6.78;4.30;;;9.70;55.60;;;;;;345543;28;1746;-56
2023/12/03 00:10:56;;;;;;;6.88;4.22;;;9.70;55.60;;;;;;345525;28;1062;-55
2023/12/03 00:11:07;;;;;;;6.53;4.20;;;9.70;55.60;;;;;;345436;28;962;-56
2023/12/03 00:11:18;;;;;;;6.18;4.15;;;9.70;55.60;;;;;;345491;28;1059;-54
2023/12/03 00:11:29;;;;;;;6.22;4.10;;;9.70;55.60;;;;;;345490;28;1275;-55
2023/12/03 00:11:39;;;;;;;5.77;4.00;;;9.70;55.60;;;;;;345441;28;1060;-55
2023/12/03 00:11:50;;;;;;;6.03;4.10;;;9.70;55.60;;;;;;345446;28;995;-55
2023/12/03 00:12:01;;;;;;;6.10;4.28;;;9.70;55.70;;;;;;345575;28;853;-55
2023/12/03 00:12:12;;;;;;;5.75;4.30;;;9.70;55.70;;;;;;345544;28;856;-55
2023/12/03 00:12:23;;;;;;;5.72;4.30;;;9.70;55.70;;;;;;345499;28;1028;-56
2023/12/03 00:12:34;;;;;;;5.60;4.18;;;9.70;55.60;;;;;;345553;28;888;-55
2023/12/03 00:12:44;;;;;;;6.18;4.07;;;9.70;55.50;;;;;;345419;28;1028;-55
2023/12/03 00:12:55;;;;;;;6.37;4.20;;;9.70;55.50;;;;;;345439;28;1083;-56
2023/12/03 00:13:06;;;;;;;6.47;4.10;;;9.70;55.60;;;;;;345534;28;1023;-55
2023/12/03 00:13:17;;;;;;;6.30;3.95;;;9.70;55.70;;;;;;345441;28;1910;-56
2023/12/03 00:13:27;;;;;;;7.20;3.72;;;9.70;55.70;;;;;;345540;28;1071;-55
2023/12/03 00:13:38;;;;;;;6.47;3.80;;;9.70;55.60;;;;;;345401;28;953;-55
2023/12/03 00:13:49;;;;;;;6.47;4.00;;;9.70;55.50;;;;;;345530;28;857;-55
2023/12/03 00:14:00;;;;;;;6.30;4.30;;;9.70;55.60;;;;;;345538;28;821;-55
2023/12/03 00:14:10;;;;;;;6.63;4.15;;;9.70;55.70;;;;;;345497;28;1003;-54
2023/12/03 00:14:21;;;;;;;7.05;4.40;;;9.70;55.60;;;;;;345532;28;837;-56
2023/12/03 00:14:32;;;;;;;6.80;4.60;;;9.70;55.60;;;;;;345422;28;942;-54
2023/12/03 00:14:43;;;;;;;5.97;4.53;;;9.70;55.50;;;;;;345498;28;1019;-54
2023/12/03 00:14:54;;;;;;;5.80;4.28;;;9.70;55.50;;;;;;345488;28;2460;-56
2023/12/03 00:15:05;;;;;;;5.43;3.83;;;9.70;55.50;;;;;;345480;28;1020;-56
2023/12/03 00:15:16;;;;;;;5.30;3.80;;;9.70;55.60;;;;;;345522;28;988;-55
2023/12/03 00:15:27;;;;;;;6.28;3.67;;;9.70;55.60;;;;;;345422;28;1189;-55
2023/12/03 00:15:38;;;;;;;6.38;3.85;;;9.70;55.70;;;;;;345446;28;1020;-56
2023/12/03 00:15:48;;;;;;;6.63;4.13;;;9.70;55.70;;;;;;345525;28;1019;-56
2023/12/03 00:15:59;;;;;;;5.68;4.35;;;9.70;55.80;;;;;;345471;28;885;-55
2023/12/03 00:16:10;;;;;;;5.50;4.30;;;9.70;55.70;;;;;;345540;28;1110;-55
2023/12/03 00:16:21;;;;;;;5.05;4.00;;;9.70;55.70;;;;;;345415;28;1143;-56
2023/12/03 00:16:32;;;;;;;5.05;4.15;;;9.70;55.70;;;;;;345537;28;992;-55
2023/12/03 00:16:42;;;;;;;5.20;4.05;;;9.70;55.70;;;;;;345475;28;850;-56
2023/12/03 00:16:53;;;;;;;5.47;4.10;;;9.70;55.70;;;;;;345524;28;1162;-55
2023/12/03 00:17:04;;;;;;;5.83;4.10;;;9.70;55.80;;;;;;345475;28;1167;-55
2023/12/03 00:17:15;;;;;;;5.85;4.25;;;9.60;55.70;;;;;;345453;28;1039;-55
2023/12/03 00:17:26;;;;;;;6.85;4.22;;;9.70;55.70;;;;;;345527;28;872;-55
2023/12/03 00:17:37;;;;;;;7.47;4.23;;;9.70;55.80;;;;;;345508;28;1163;-56
2023/12/03 00:17:48;;;;;;;7.45;4.30;;;9.60;55.80;;;;;;345541;28;901;-55
2023/12/03 00:17:59;;;;;;;7.32;4.18;;;9.70;55.80;;;;;;345422;28;1107;-55
2023/12/03 00:18:10;;;;;;;6.53;4.00;;;9.60;55.70;;;;;;345450;28;1351;-56
2023/12/03 00:18:20;;;;;;;7.53;4.00;;;9.70;55.70;;;;;;345491;28;1146;-55
2023/12/03 00:18:31;;;;;;;6.53;4.18;;;9.60;55.70;;;;;;345499;28;996;-56
2023/12/03 00:18:42;;;;;;;6.00;4.03;;;9.60;55.80;;;;;;345508;28;1432;-55
2023/12/03 00:18:53;;;;;;;5.78;4.30;;;9.60;55.80;;;;;;345498;28;1031;-55
2023/12/03 00:19:03;;;;;;;6.13;4.40;;;9.60;55.80;;;;;;345442;28;1028;-56
2023/12/03 00:19:14;;;;;;;6.27;4.30;;;9.70;55.80;;;;;;345518;28;826;-55
2023/12/03 00:19:25;;;;;;;5.53;4.05;;;9.70;55.80;;;;;;345486;28;1099;-53
2023/12/03 00:19:36;;;;;;;6.03;4.00;;;9.60;55.90;;;;;;345490;28;1245;-55
2023/12/03 00:19:46;;;;;;;6.00;4.10;;;9.70;55.90;;;;;;345464;28;1473;-56
2023/12/03 00:19:57;;;;;;;5.68;3.97;;;9.60;55.90;;;;;;345493;28;1143;-55
2023/12/03 00:20:08;;;;;;;5.43;3.80;;;9.60;55.90;;;;;;345431;28;1022;-55
2023/12/03 00:20:19;;;;;;;6.10;3.85;;;9.60;55.90;;;;;;345533;28;960;-55
2023/12/03 00:20:30;;;;;;;6.68;4.07;;;9.60;55.80;;;;;;345501;28;1150;-55
2023/12/03 00:20:40;;;;;;;6.82;4.07;;;9.70;55.80;;;;;;345463;28;1020;-55
2023/12/03 00:20:51;;;;;;;6.65;4.20;;;9.60;55.80;;;;;;345383;28;1004;-54
2023/12/03 00:21:02;;;;;;;7.13;4.53;;;9.60;55.80;;;;;;345480;28;1087;-56
2023/12/03 00:21:13;;;;;;;7.15;4.53;;;9.60;55.80;;;;;;345559;28;889;-55
2023/12/03 00:21:24;;;;;;;7.18;4.57;;;9.60;55.80;;;;;;345497;28;1040;-55
2023/12/03 00:21:35;;;;;;;6.32;4.55;;;9.60;55.80;;;;;;345394;28;2360;-54
2023/12/03 00:21:46;;;;;;;6.47;4.43;;;9.60;55.80;;;;;;345573;28;949;-55
2023/12/03 00:21:56;;;;;;;6.73;4.23;;;9.60;55.80;;;;;;345421;28;1803;-55
2023/12/03 00:22:10;;;;;;;7.00;4.40;;;9.60;55.80;;;;;;345549;28;872;-54
2023/12/03 00:22:21;;;;;;;6.32;4.40;;;9.60;56.00;;;;;;345478;28;936;-55
2023/12/03 00:22:32;;;;;;;6.00;4.22;;;9.60;56.10;;;;;;345479;28;987;-55
2023/12/03 00:22:43;;;;;;;6.55;4.20;;;9.60;56.00;;;;;;345498;28;1106;-55
2023/12/03 00:22:54;;;;;;;6.57;4.10;;;9.60;55.90;;;;;;345334;28;1419;-55
2023/12/03 00:23:05;;;;;;;6.88;4.13;;;9.60;55.90;;;;;;345518;28;1019;-55
2023/12/03 00:23:16;;;;;;;6.28;4.15;;;9.60;55.80;;;;;;345535;28;972;-55
2023/12/03 00:23:26;;;;;;;6.70;4.40;;;9.60;55.90;;;;;;345424;28;941;-55
2023/12/03 00:23:37;;;;;;;7.07;4.55;;;9.60;56.00;;;;;;345524;28;1024;-56
2023/12/03 00:23:48;;;;;;;7.70;4.80;;;9.60;56.00;;;;;;345494;28;1015;-55
2023/12/03 00:23:59;;;;;;;8.07;4.70;;;9.60;56.00;;;;;;345406;28;1102;-57
2023/12/03 00:24:10;;;;;;;8.02;4.78;;;9.60;56.00;;;;;;345557;28;875;-55
2023/12/03 00:24:21;;;;;;;8.80;4.78;;;9.60;56.00;;;;;;345575;28;853;-55
2023/12/03 00:24:31;;;;;;;7.22;4.65;;;9.60;56.10;;;;;;345417;28;1198;-54
2023/12/03 00:24:42;;;;;;;7.22;4.70;;;9.60;56.00;;;;;;345533;28;1087;-55
2023/12/03 00:24:53;;;;;;;6.50;4.60;;;9.60;56.10;;;;;;345526;28;1103;-55
2023/12/03 00:25:04;;;;;;;6.07;4.50;;;9.60;56.10;;;;;;345463;28;909;-54
2023/12/03 00:25:15;;;;;;;5.82;4.45;;;9.60;56.10;;;;;;345559;28;865;-54
2023/12/03 00:25:26;;;;;;;6.13;4.77;;;9.60;56.10;;;;;;345505;28;1020;-55
2023/12/03 00:25:36;;;;;;;6.35;4.80;;;9.60;56.00;;;;;;345476;28;948;-55
2023/12/03 00:25:47;;;;;;;6.20;4.37;;;9.60;56.00;;;;;;345538;28;928;-55
2023/12/03 00:25:58;;;;;;;6.38;4.25;;;9.60;55.90;;;;;;345497;28;891;-55
2023/12/03 00:26:09;;;;;;;6.35;4.18;;;9.60;55.90;;;;;;345394;28;1119;-54
2023/12/03 00:26:19;;;;;;;6.68;4.03;;;9.60;55.90;;;;;;345502;28;833;-56
2023/12/03 00:26:30;;;;;;;6.27;4.00;;;9.60;55.90;;;;;;345568;28;951;-54
2023/12/03 00:26:41;;;;;;;6.53;4.28;;;9.60;56.00;;;;;;345465;28;888;-55
2023/12/03 00:26:52;;;;;;;6.32;4.50;;;9.60;56.00;;;;;;345472;28;1028;-54
2023/12/03 00:27:02;;;;;;;6.43;4.45;;;9.60;56.10;;;;;;345496;28;810;-54
2023/12/03 00:27:13;;;;;;;6.78;4.60;;;9.60;56.10;;;;;;345380;28;1085;-56
2023/12/03 00:27:24;;;;;;;6.75;4.68;;;9.60;56.00;;;;;;345472;28;1379;-55
2023/12/03 00:27:35;;;;;;;7.30;4.70;;;9.60;56.00;;;;;;345536;28;881;-55
2023/12/03 00:27:46;;;;;;;6.55;4.53;;;9.60;56.00;;;;;;345437;28;1967;-55
2023/12/03 00:27:57;;;;;;;6.03;4.28;;;9.60;56.20;;;;;;345566;28;1042;-55
2023/12/03 00:28:07;;;;;;;5.70;4.27;;;9.60;56.20;;;;;;345519;28;876;-55
2023/12/03 00:28:18;;;;;;;6.15;4.47;;;9.60;56.10;;;;;;345399;28;1097;-56
2023/12/03 00:28:29;;;;;;;6.40;4.50;;;9.60;56.10;;;;;;345559;28;813;-54
2023/12/03 00:28:40;;;;;;;6.30;4.45;;;9.60;56.10;;;;;;345479;28;1048;-55
2023/12/03 00:28:50;;;;;;;6.90;4.57;;;9.60;56.10;;;;;;345404;28;1108;-55
2023/12/03 00:29:01;;;;;;;7.50;4.87;;;9.60;56.10;;;;;;345490;28;1107;-55
2023/12/03 00:29:12;;;;;;;7.90;4.65;;;9.60;56.10;;;;;;345460;28;996;-55
2023/12/03 00:29:23;;;;;;;6.60;4.38;;;9.60;56.10;;;;;;345444;28;1206;-54
2023/12/03 00:29:34;;;;;;;6.03;4.18;;;9.60;56.10;;;;;;345471;28;1516;-56
2023/12/03 00:29:45;;;;;;;6.05;4.10;;;9.60;56.20;;;;;;345466;28;1115;-56
2023/12/03 00:29:57;;;;;;;7.03;4.25;;;9.60;56.20;;;;;;345437;28;972;-55
2023/12/03 00:30:08;;;;;;;7.10;4.63;;;9.60;56.20;;;;;;345518;28;934;-55
2023/12/03 00:30:19;;;;;;;7.65;4.95;;;9.60;56.20;;;;;;345478;28;1696;-55
2023/12/03 00:30:30;;;;;;;7.32;4.95;;;9.60;56.20;;;;;;345409;28;1159;-56
2023/12/03 00:30:41;;;;;;;7.90;4.70;;;9.60;56.20;;;;;;345463;28;1035;-55
2023/12/03 00:30:51;;;;;;;7.97;4.75;;;9.60;56.20;;;;;;345493;28;1837;-56
2023/12/03 00:31:02;;;;;;;7.07;4.53;;;9.60;56.10;;;;;;345418;28;1020;-56
2023/12/03 00:31:13;;;;;;;6.78;4.30;;;9.60;56.10;;;;;;345493;28;968;-54
2023/12/03 00:31:24;;;;;;;6.88;4.10;;;9.60;56.10;;;;;;345562;28;1793;-55
2023/12/03 00:31:35;;;;;;;7.13;4.43;;;9.60;56.30;;;;;;345354;28;1366;-55
2023/12/03 00:31:45;;;;;;;7.43;4.38;;;9.60;56.30;;;;;;345485;28;1080;-55
2023/12/03 00:31:56;;;;;;;7.57;4.40;;;9.60;56.30;;;;;;345503;28;956;-55
2023/12/03 00:32:07;;;;;;;7.75;4.50;;;9.60;56.30;;;;;;345414;28;916;-55
2023/12/03 00:32:18;;;;;;;7.15;4.53;;;9.60;56.20;;;;;;345506;28;968;-56
2023/12/03 00:32:29;;;;;;;7.65;4.63;;;9.60;56.10;;;;;;345470;28;976;-55
2023/12/03 00:32:39;;;;;;;8.03;4.80;;;9.60;56.00;;;;;;345469;28;955;-56
2023/12/03 00:32:50;;;;;;;7.88;4.82;;;9.60;56.00;;;;;;345493;28;1024;-55
2023/12/03 00:33:01;;;;;;;7.55;4.60;;;9.60;55.90;;;;;;345527;28;1008;-56
2023/12/03 00:33:11;;;;;;;8.02;4.32;;;9.60;55.90;;;;;;345365;28;1988;-55
2023/12/03 00:33:22;;;;;;;7.82;4.10;;;9.60;55.90;;;;;;345454;28;1056;-56
2023/12/03 00:33:33;;;;;;;7.40;4.10;;;9.60;56.00;;;;;;345536;28;1003;-56
2023/12/03 00:33:44;;;;;;;7.57;4.35;;;9.60;56.00;;;;;;345358;28;1079;-57
2023/12/03 00:33:54;;;;;;;7.78;4.28;;;9.60;56.10;;;;;;345458;28;1018;-55
2023/12/03 00:34:06;;;;;;;7.63;4.05;;;9.60;56.10;;;;;;345491;28;814;-55
2023/12/03 00:34:16;;;;;;;6.88;3.80;;;9.60;56.10;;;;;;345402;28;1201;-55
2023/12/03 00:34:27;;;;;;;6.60;3.78;;;9.60;56.10;;;;;;345483;28;1142;-56
2023/12/03 00:34:38;;;;;;;6.68;4.05;;;9.70;55.90;;;;;;345451;28;972;-54
2023/12/03 00:34:49;;;;;;;6.97;4.17;;;9.60;55.80;;;;;;345374;28;952;-55
2023/12/03 00:34:59;;;;;;;6.78;4.22;;;9.60;55.90;;;;;;345526;28;810;-55
2023/12/03 00:35:11;;;;;;;6.53;3.92;;;9.60;55.90;;;;;;345537;28;891;-54
2023/12/03 00:35:22;;;;;;;6.47;3.78;;;9.60;56.00;;;;;;345418;28;1429;-55
2023/12/03 00:35:33;;;;;;;7.00;3.97;;;9.70;56.10;;;;;;345525;28;818;-55
2023/12/03 00:35:43;;;;;;;7.97;4.33;;;9.60;56.10;;;;;;345408;28;2213;-55
2023/12/03 00:35:54;;;;;;;7.70;4.53;;;9.60;56.00;;;;;;345395;28;1082;-55
2023/12/03 00:36:05;;;;;;;8.02;4.45;;;9.60;56.00;;;;;;345522;28;1019;-56
2023/12/03 00:36:16;;;;;;;6.65;4.18;;;9.60;56.00;;;;;;345519;28;890;-55
2023/12/03 00:36:27;;;;;;;7.25;4.28;;;9.60;56.00;;;;;;345463;28;992;-56
2023/12/03 00:36:38;;;;;;;6.78;4.25;;;9.60;56.00;;;;;;345508;28;940;-56
2023/12/03 00:36:48;;;;;;;7.50;4.20;;;9.60;56.00;;;;;;345509;28;841;-54
2023/12/03 00:36:59;;;;;;;7.07;3.92;;;9.60;55.90;;;;;;345388;28;917;-56
2023/12/03 00:37:10;;;;;;;6.30;4.03;;;9.60;55.90;;;;;;345499;28;1006;-54
2023/12/03 00:37:21;;;;;;;5.90;4.20;;;9.60;56.00;;;;;;345476;28;1087;-55
2023/12/03 00:37:32;;;;;;;6.00;4.20;;;9.60;56.00;;;;;;345470;28;979;-55
2023/12/03 00:37:42;;;;;;;6.13;3.90;;;9.60;56.00;;;;;;345520;28;1079;-55
2023/12/03 00:37:53;;;;;;;5.63;3.70;;;9.60;55.90;;;;;;345486;28;888;-55
2023/12/03 00:38:04;;;;;;;5.53;3.83;;;9.60;55.90;;;;;;345455;28;1110;-56
2023/12/03 00:38:15;;;;;;;5.72;4.03;;;9.60;55.90;;;;;;345497;28;829;-55
2023/12/03 00:38:26;;;;;;;5.93;4.15;;;9.60;56.00;;;;;;345434;28;1168;-56
2023/12/03 00:38:37;;;;;;;6.15;4.05;;;9.60;56.10;;;;;;345440;28;1773;-55
2023/12/03 00:38:47;;;;;;;6.20;4.10;;;9.60;56.10;;;;;;345444;28;1074;-55
2023/12/03 00:38:59;;;;;;;6.25;3.90;;;9.60;56.10;;;;;;345392;28;1015;-57
2023/12/03 00:39:10;;;;;;;6.65;3.85;;;9.60;56.10;;;;;;345496;28;1106;-54
2023/12/03 00:39:20;;;;;;;6.28;3.67;;;9.50;56.30;;;;;;345549;28;1031;-56
2023/12/03 00:39:31;;;;;;;6.78;4.00;;;9.60;56.30;;;;;;345492;28;936;-55
2023/12/03 00:39:42;;;;;;;6.63;4.07;;;9.60;56.30;;;;;;345465;28;994;-55
2023/12/03 00:39:52;;;;;;;5.93;4.10;;;9.60;56.20;;;;;;345537;28;869;-56
2023/12/03 00:40:04;;;;;;;5.47;3.90;;;9.60;56.20;;;;;;345436;28;1071;-55
2023/12/03 00:40:15;;;;;;;5.90;3.67;;;9.50;56.10;;;;;;345452;28;1043;-55
2023/12/03 00:40:26;;;;;;;6.32;3.85;;;9.60;56.20;;;;;;345471;28;1205;-54
2023/12/03 00:40:39;;;;;;;5.82;3.78;;;9.50;56.20;;;;;;345501;28;1113;-55
2023/12/03 00:40:49;;;;;;;5.38;3.67;;;9.50;56.10;;;;;;345381;28;1032;-54
2023/12/03 00:41:00;;;;;;;5.53;3.70;;;9.60;56.00;;;;;;345394;28;1162;-55
2023/12/03 00:41:11;;;;;;;6.03;3.43;;;9.50;56.10;;;;;;345520;28;1091;-55
2023/12/03 00:41:22;;;;;;;6.38;3.65;;;9.50;56.10;;;;;;345494;28;1019;-55
2023/12/03 00:41:33;;;;;;;6.55;3.70;;;9.50;56.20;;;;;;345440;28;1404;-56
2023/12/03 00:41:44;;;;;;;7.23;4.00;;;9.50;56.20;;;;;;345532;28;1079;-55
2023/12/03 00:41:54;;;;;;;7.63;3.92;;;9.60;56.20;;;;;;345497;28;1843;-55
2023/12/03 00:42:05;;;;;;;7.50;3.83;;;9.50;56.10;;;;;;345535;28;1026;-55
2023/12/03 00:42:16;;;;;;;6.97;3.83;;;9.50;56.20;;;;;;345478;28;936;-55
2023/12/03 00:42:27;;;;;;;5.63;4.00;;;9.50;56.20;;;;;;345457;28;1107;-55
2023/12/03 00:42:37;;;;;;;5.53;4.07;;;9.50;56.20;;;;;;345461;28;1135;-55
2023/12/03 00:42:49;;;;;;;5.28;4.00;;;9.50;56.20;;;;;;345574;28;829;-55
2023/12/03 00:43:00;;;;;;;5.53;4.00;;;9.50;56.10;;;;;;345517;28;1008;-54
2023/12/03 00:43:10;;;;;;;6.30;4.10;;;9.50;56.10;;;;;;345464;28;872;-55
2023/12/03 00:43:21;;;;;;;6.70;4.03;;;9.50;56.10;;;;;;345411;28;1039;-55
2023/12/03 00:43:32;;;;;;;6.80;4.00;;;9.50;56.10;;;;;;345536;28;1759;-55
2023/12/03 00:43:43;;;;;;;5.57;3.92;;;9.50;56.10;;;;;;345499;28;1445;-55
2023/12/03 00:43:53;;;;;;;6.07;4.00;;;9.50;56.10;;;;;;345440;28;1047;-54
2023/12/03 00:44:05;;;;;;;6.23;4.03;;;9.50;56.10;;;;;;345521;28;1230;-56
2023/12/03 00:44:15;;;;;;;8.15;4.28;;;9.50;56.10;;;;;;345405;28;1648;-55
2023/12/03 00:44:26;;;;;;;7.57;4.20;;;9.50;56.10;;;;;;345516;28;895;-54
2023/12/03 00:44:37;;;;;;;7.37;4.30;;;9.50;56.00;;;;;;345398;28;1588;-55
2023/12/03 00:44:48;;;;;;;5.85;4.20;;;9.50;56.10;;;;;;345464;28;976;-55
2023/12/03 00:44:59;;;;;;;6.80;4.40;;;9.50;56.20;;;;;;345447;28;1043;-54
2023/12/03 00:45:09;;;;;;;7.50;4.50;;;9.50;56.20;;;;;;345440;28;1078;-55
2023/12/03 00:45:22;;;;;;;8.15;4.95;;;9.50;56.20;;;;;;345441;28;1668;-55
2023/12/03 00:45:32;;;;;;;9.38;6.13;;;9.50;56.10;;;;;;345472;28;1120;-55
2023/12/03 00:45:43;;;;;;;11.07;7.55;;;9.50;56.20;;;;;;345522;28;879;-55
2023/12/03 00:45:54;;;;;;;13.65;9.00;;;9.50;56.20;;;;;;345584;28;884;-54
2023/12/03 00:46:05;;;;;;;15.05;9.88;;;9.50;56.20;;;;;;345392;28;1089;-55
2023/12/03 00:46:20;;;;;;;15.95;10.63;;;9.40;56.20;;;;;;345479;28;960;-56
2023/12/03 00:46:30;;;;;;;16.70;10.35;;;9.50;56.30;;;;;;345486;28;1000;-55
2023/12/03 00:46:41;;;;;;;16.87;10.33;;;9.50;56.30;;;;;;345501;28;810;-54
2023/12/03 00:46:52;;;;;;;15.90;10.77;;;9.50;56.40;;;;;;345349;28;1099;-56
2023/12/03 00:47:03;;;;;;;17.17;11.80;;;9.40;56.40;;;;;;345483;28;1074;-55
2023/12/03 00:47:14;;;;;;;17.30;11.73;;;9.40;56.40;;;;;;345475;28;2406;-56
2023/12/03 00:47:24;;;;;;;16.23;10.52;;;9.40;56.40;;;;;;345524;28;1858;-55
2023/12/03 00:47:35;;;;;;;13.93;9.27;;;9.40;56.40;;;;;;345489;28;1637;-56
2023/12/03 00:47:46;;;;;;;12.80;8.97;;;9.50;56.40;;;;;;345379;28;1050;-54
2023/12/03 00:47:57;;;;;;;11.57;8.73;;;9.40;56.40;;;;;;345452;28;829;-56
2023/12/03 00:48:07;;;;;;;11.93;8.93;;;9.50;56.40;;;;;;345512;28;1087;-54
2023/12/03 00:48:18;;;;;;;10.68;7.78;;;9.40;56.30;;;;;;345395;28;1131;-55
2023/12/03 00:48:29;;;;;;;9.75;6.72;;;9.50;56.30;;;;;;345484;28;1012;-56
2023/12/03 00:48:40;;;;;;;8.50;5.80;;;9.40;56.20;;;;;;345506;28;980;-54
2023/12/03 00:48:50;;;;;;;7.93;5.47;;;9.50;56.10;;;;;;345369;28;1083;-54
2023/12/03 00:49:01;;;;;;;7.90;5.35;;;9.50;56.10;;;;;;345510;28;1758;-55
2023/12/03 00:49:13;;;;;;;7.50;5.22;;;9.40;56.10;;;;;;345405;28;1520;-55
2023/12/03 00:49:24;;;;;;;6.82;5.00;;;9.40;56.10;;;;;;345430;28;1059;-56
2023/12/03 00:49:34;;;;;;;6.37;4.83;;;9.50;56.20;;;;;;345562;28;786;-54
2023/12/03 00:49:45;;;;;;;6.85;4.82;;;9.40;56.30;;;;;;345445;28;1004;-55
2023/12/03 00:49:56;;;;;;;7.25;4.88;;;9.50;56.20;;;;;;345459;28;996;-55
2023/12/03 00:50:07;;;;;;;7.90;4.95;;;9.50;56.20;;;;;;345498;28;1520;-55
2023/12/03 00:50:18;;;;;;;7.85;5.30;;;9.40;56.10;;;;;;345500;28;911;-55
2023/12/03 00:50:29;;;;;;;8.50;5.20;;;9.50;56.20;;;;;;345438;28;990;-54
2023/12/03 00:50:40;;;;;;;9.10;5.22;;;9.50;56.20;;;;;;345442;28;2051;-55
2023/12/03 00:50:50;;;;;;;9.77;5.47;;;9.50;56.30;;;;;;345469;28;1027;-55
2023/12/03 00:51:01;;;;;;;8.57;5.10;;;9.40;56.20;;;;;;345377;28;1035;-54
2023/12/03 00:51:13;;;;;;;8.23;5.03;;;9.40;56.20;;;;;;345525;28;884;-54
2023/12/03 00:51:24;;;;;;;7.18;4.60;;;9.50;56.10;;;;;;345476;28;1078;-55
2023/12/03 00:51:34;;;;;;;8.52;4.78;;;9.50;56.10;;;;;;345432;28;983;-56
2023/12/03 00:51:45;;;;;;;7.57;4.60;;;9.40;56.10;;;;;;345408;28;2185;-54
2023/12/03 00:51:56;;;;;;;7.13;4.70;;;9.40;56.10;;;;;;345436;28;1537;-54
2023/12/03 00:52:07;;;;;;;6.82;4.40;;;9.40;56.10;;;;;;345508;28;1063;-55
2023/12/03 00:52:17;;;;;;;7.15;4.32;;;9.40;56.20;;;;;;345407;28;1010;-56
2023/12/03 00:52:28;;;;;;;7.03;4.28;;;9.40;56.30;;;;;;345429;28;1108;-54
2023/12/03 00:52:39;;;;;;;6.80;4.75;;;9.40;56.30;;;;;;345405;28;1708;-54
2023/12/03 00:52:49;;;;;;;7.97;5.43;;;9.40;56.20;;;;;;345528;28;1019;-55
2023/12/03 00:53:00;;;;;;;8.90;5.90;;;9.40;56.20;;;;;;345381;28;1015;-56
2023/12/03 00:53:11;;;;;;;9.25;5.97;;;9.40;56.30;;;;;;345489;28;972;-54
2023/12/03 00:53:22;;;;;;;7.82;5.70;;;9.40;56.30;;;;;;345413;28;1977;-56
2023/12/03 00:53:32;;;;;;;7.70;5.18;;;9.40;56.30;;;;;;345543;28;868;-55
2023/12/03 00:53:44;;;;;;;6.97;4.70;;;9.40;56.20;;;;;;345357;28;1141;-55
2023/12/03 00:53:55;;;;;;;8.07;4.45;;;9.40;56.20;;;;;;345457;28;1032;-54
2023/12/03 00:54:06;;;;;;;7.72;4.65;;;9.40;56.20;;;;;;345434;28;988;-55
2023/12/03 00:54:17;;;;;;;8.60;5.30;;;9.40;56.30;;;;;;345524;28;1127;-55
2023/12/03 00:54:28;;;;;;;7.13;5.20;;;9.40;56.50;;;;;;345346;28;1046;-55
2023/12/03 00:54:39;;;;;;;8.10;5.30;;;9.40;56.40;;;;;;345518;28;880;-55
2023/12/03 00:54:50;;;;;;;8.18;5.05;;;9.40;56.50;;;;;;345525;28;861;-56
2023/12/03 00:55:02;;;;;;;8.32;5.13;;;9.30;56.40;;;;;;345341;28;1517;-55
2023/12/03 00:55:13;;;;;;;7.95;5.25;;;9.30;56.40;;;;;;345424;28;927;-55
2023/12/03 00:55:24;;;;;;;8.02;5.60;;;9.40;56.40;;;;;;345532;28;1074;-55
2023/12/03 00:55:35;;;;;;;9.13;5.90;;;9.40;56.40;;;;;;345489;28;872;-55
2023/12/03 00:55:45;;;;;;;9.68;6.32;;;9.30;56.40;;;;;;345517;28;897;-54
2023/12/03 00:55:56;;;;;;;10.40;6.50;;;9.40;56.40;;;;;;345386;28;1107;-56
2023/12/03 00:56:08;;;;;;;10.48;6.97;;;9.40;56.40;;;;;;345468;28;1083;-56
2023/12/03 00:56:18;;;;;;;10.70;7.18;;;9.40;56.40;;;;;;345470;28;942;-55
2023/12/03 00:56:29;;;;;;;9.85;7.18;;;9.30;56.40;;;;;;345414;28;1102;-55
2023/12/03 00:56:40;;;;;;;9.38;7.28;;;9.40;56.40;;;;;;345438;28;1063;-54
2023/12/03 00:56:50;;;;;;;9.73;7.50;;;9.40;56.40;;;;;;345443;28;1015;-54
2023/12/03 00:57:01;;;;;;;11.27;8.13;;;9.30;56.40;;;;;;345445;28;941;-55
2023/12/03 00:57:12;;;;;;;11.93;8.18;;;9.30;56.60;;;;;;345461;28;829;-54
2023/12/03 00:57:23;;;;;;;10.95;7.82;;;9.30;56.60;;;;;;345414;28;1011;-55
2023/12/03 00:57:34;;;;;;;9.57;7.28;;;9.30;56.60;;;;;;345475;28;980;-55
2023/12/03 00:57:45;;;;;;;10.27;7.47;;;9.30;56.50;;;;;;345476;28;1051;-54
2023/12/03 00:57:56;;;;;;;11.18;7.85;;;9.30;56.40;;;;;;345424;28;1039;-54
2023/12/03 00:58:07;;;;;;;11.90;7.95;;;9.30;56.40;;;;;;345508;28;1055;-54
2023/12/03 00:58:18;;;;;;;12.30;7.93;;;9.40;56.30;;;;;;345536;28;960;-55
2023/12/03 00:58:28;;;;;;;13.35;8.43;;;9.30;56.30;;;;;;345398;28;925;-54
2023/12/03 00:58:39;;;;;;;13.38;9.02;;;9.30;56.50;;;;;;345518;28;837;-55
2023/12/03 00:58:50;;;;;;;13.65;9.10;;;9.30;56.50;;;;;;345501;28;1019;-54
2023/12/03 00:59:01;;;;;;;12.73;8.73;;;9.30;56.50;;;;;;345383;28;1047;-55
2023/12/03 00:59:11;;;;;;;11.93;8.10;;;9.30;56.50;;;;;;345509;28;1117;-54
2023/12/03 00:59:22;;;;;;;10.48;7.47;;;9.30;56.60;;;;;;345496;28;853;-54